Time;durP1;ratioP1;P1;durP2;ratioP2;P2;SDS_P1;SDS_P2;PMS_P1;PMS_P2;Temp;Humidity;BMP_temperature;BMP_pressure;BME280_temperature;BME280_humidity;BME280_pressure;Samples;Min_cycle;Max_cycle;Signal;HPM_P1;HPM_P2
2023/06/18 00:00:19;;;;;;;14.17;13.27;;;19.70;44.70;;;;;;4942413;29;20452;-83
2023/06/18 00:02:48;;;;;;;13.80;12.60;;;19.70;44.10;;;;;;4940266;28;20495;-84
2023/06/18 00:05:16;;;;;;;14.17;13.17;;;19.70;45.60;;;;;;4941496;28;20548;-83
2023/06/18 00:07:44;;;;;;;13.40;12.37;;;19.60;45.20;;;;;;4941133;29;20452;-82
2023/06/18 00:10:13;;;;;;;14.10;13.10;;;19.60;45.10;;;;;;4942145;29;20494;-83
2023/06/18 00:12:41;;;;;;;14.23;13.30;;;19.50;45.70;;;;;;4940628;28;20548;-83
2023/06/18 00:15:11;;;;;;;14.33;13.33;;;19.50;46.80;;;;;;4938353;29;20464;-83
2023/06/18 00:17:39;;;;;;;14.83;13.83;;;19.50;47.00;;;;;;4944199;28;20981;-83
2023/06/18 00:20:08;;;;;;;13.53;12.73;;;19.50;48.30;;;;;;4941567;29;20504;-83
2023/06/18 00:22:38;;;;;;;13.80;13.00;;;19.50;49.50;;;;;;4942471;28;20991;-84
2023/06/18 00:25:07;;;;;;;13.87;13.07;;;19.50;49.60;;;;;;4941473;29;20460;-82
2023/06/18 00:27:35;;;;;;;14.63;13.60;;;19.40;50.70;;;;;;4941163;29;20459;-84
2023/06/18 00:30:05;;;;;;;14.90;13.80;;;19.40;49.40;;;;;;4939266;29;20548;-84
2023/06/18 00:32:34;;;;;;;14.03;12.93;;;19.30;49.20;;;;;;4939126;28;20535;-83
2023/06/18 00:35:02;;;;;;;15.47;14.43;;;19.20;49.90;;;;;;4940020;29;20538;-84
2023/06/18 00:37:30;;;;;;;13.67;12.77;;;19.20;49.80;;;;;;4940206;28;20831;-82
2023/06/18 00:39:59;;;;;;;14.17;12.90;;;19.30;50.70;;;;;;4939792;29;20440;-81
2023/06/18 00:42:28;;;;;;;15.20;13.97;;;19.30;51.60;;;;;;4942242;28;20491;-81
2023/06/18 00:44:57;;;;;;;13.87;12.87;;;19.20;52.70;;;;;;4936076;28;20581;-82
2023/06/18 00:47:26;;;;;;;15.30;14.30;;;19.20;51.90;;;;;;4943621;29;20962;-83
2023/06/18 00:49:57;;;;;;;13.57;12.70;;;19.20;53.20;;;;;;4940882;29;21125;-81
2023/06/18 00:52:25;;;;;;;14.47;13.47;;;19.20;54.00;;;;;;4943399;28;20477;-82
2023/06/18 00:54:54;;;;;;;15.00;13.90;;;19.20;53.90;;;;;;4940761;29;20456;-83
2023/06/18 00:57:23;;;;;;;14.67;13.20;;;19.20;55.00;;;;;;4941614;28;20469;-82
2023/06/18 00:59:52;;;;;;;15.00;14.10;;;19.20;55.00;;;;;;4940610;29;20902;-82
2023/06/18 01:02:23;;;;;;;15.00;14.00;;;19.10;54.90;;;;;;4940445;28;20572;-83
2023/06/18 01:04:59;;;;;;;15.33;14.30;;;19.10;55.50;;;;;;4941603;29;20467;-82
2023/06/18 01:07:28;;;;;;;14.77;13.70;;;19.00;55.50;;;;;;4940235;29;20604;-82
2023/06/18 01:10:13;;;;;;;15.03;13.77;;;18.90;54.90;;;;;;4942090;29;20492;-79
2023/06/18 01:12:45;;;;;;;14.40;13.50;;;18.90;56.20;;;;;;4943371;28;20928;-82
2023/06/18 01:15:14;;;;;;;13.80;13.00;;;18.90;55.90;;;;;;4941596;29;20468;-83
2023/06/18 01:17:46;;;;;;;15.03;13.90;;;18.90;56.90;;;;;;4938160;29;20472;-81
2023/06/18 01:20:18;;;;;;;15.60;14.60;;;18.90;76.10;;;;;;4944264;28;20460;-83
2023/06/18 01:22:52;;;;;;;15.40;14.30;;;18.80;57.40;;;;;;4937354;28;20490;-83
2023/06/18 01:25:22;;;;;;;14.90;13.97;;;18.80;75.60;;;;;;4940832;29;20455;-83
2023/06/18 01:27:51;;;;;;;15.63;14.63;;;18.80;58.00;;;;;;4941106;29;20467;-80
2023/06/18 01:30:19;;;;;;;14.30;13.40;;;18.70;58.00;;;;;;4939444;29;20502;-81
2023/06/18 01:32:48;;;;;;;14.20;13.30;;;18.60;58.40;;;;;;4938754;29;20481;-81
2023/06/18 01:35:18;;;;;;;14.40;13.60;;;18.70;77.70;;;;;;4936776;29;20566;-83
2023/06/18 01:38:11;;;;;;;14.40;13.50;;;18.70;60.30;;;;;;4938472;29;20468;-84
2023/06/18 01:40:45;;;;;;;14.73;13.83;;;18.70;60.80;;;;;;4937547;28;20460;-83
2023/06/18 01:43:22;;;;;;;14.67;13.67;;;18.70;61.90;;;;;;4939054;29;20456;-84
2023/06/18 01:45:54;;;;;;;15.70;14.70;;;18.70;62.10;;;;;;4938180;29;20531;-84
2023/06/18 01:48:25;;;;;;;15.33;14.33;;;18.70;62.10;;;;;;4940943;29;20468;-83
2023/06/18 01:50:57;;;;;;;15.17;14.00;;;18.70;62.70;;;;;;4938985;29;20906;-83
2023/06/18 01:53:27;;;;;;;15.23;14.30;;;18.70;63.20;;;;;;4939854;29;20844;-84
2023/06/18 01:55:57;;;;;;;14.50;13.57;;;18.60;62.00;;;;;;4942861;29;20527;-83
2023/06/18 01:58:26;;;;;;;13.90;13.10;;;18.60;61.30;;;;;;4936717;29;20464;-83
2023/06/18 02:00:54;;;;;;;14.90;14.00;;;18.60;60.80;;;;;;4933539;28;20469;-83
2023/06/18 02:03:22;;;;;;;14.03;13.23;;;18.50;63.00;;;;;;4938085;28;20483;-82
2023/06/18 02:05:51;;;;;;;14.90;14.03;;;18.50;63.00;;;;;;4935202;28;20994;-83
2023/06/18 02:08:20;;;;;;;14.47;13.47;;;18.40;62.70;;;;;;4938344;28;20973;-82
2023/06/18 02:10:49;;;;;;;14.27;13.53;;;18.40;63.20;;;;;;4937449;29;20472;-84
2023/06/18 02:13:17;;;;;;;15.70;14.70;;;18.40;63.40;;;;;;4939363;28;20467;-82
2023/06/18 02:15:46;;;;;;;15.03;14.03;;;18.40;63.10;;;;;;4939005;29;20447;-82
2023/06/18 02:18:14;;;;;;;14.30;13.50;;;18.40;65.10;;;;;;4936905;29;20460;-83
2023/06/18 02:20:43;;;;;;;14.13;13.33;;;18.30;65.70;;;;;;4937325;28;20452;-84
2023/06/18 02:23:11;;;;;;;14.63;13.70;;;18.40;65.80;;;;;;4935026;29;20471;-82
2023/06/18 02:25:44;;;;;;;14.80;13.80;;;18.40;66.80;;;;;;4937424;29;20459;-81
2023/06/18 02:28:12;;;;;;;15.03;14.00;;;18.30;67.10;;;;;;4938548;29;20484;-83
2023/06/18 02:30:40;;;;;;;15.10;14.20;;;18.30;67.30;;;;;;4935587;29;20898;-83
2023/06/18 02:33:10;;;;;;;15.17;14.17;;;18.30;66.60;;;;;;4938648;29;20470;-83
2023/06/18 02:35:38;;;;;;;14.70;13.80;;;18.20;65.70;;;;;;4933770;29;21035;-81
2023/06/18 02:38:06;;;;;;;16.40;15.00;;;18.20;65.90;;;;;;4939359;29;20472;-83
2023/06/18 02:40:35;;;;;;;16.17;14.80;;;18.20;67.00;;;;;;4937687;29;20547;-84
2023/06/18 02:43:05;;;;;;;15.67;14.43;;;18.30;71.10;;;;;;4937211;29;20485;-81
2023/06/18 02:45:34;;;;;;;14.40;13.53;;;18.20;83.80;;;;;;4940004;28;20519;-83
2023/06/18 02:48:02;;;;;;;14.90;14.00;;;18.20;73.10;;;;;;4934121;29;20498;-82
2023/06/18 02:50:30;;;;;;;15.80;14.60;;;18.20;73.00;;;;;;4936072;29;20460;-83
2023/06/18 02:52:58;;;;;;;15.23;14.33;;;18.20;72.60;;;;;;4934011;28;20485;-84
2023/06/18 02:55:26;;;;;;;15.73;14.73;;;18.10;71.30;;;;;;4935098;29;20575;-84
2023/06/18 02:57:54;;;;;;;14.50;13.50;;;18.10;71.60;;;;;;4936102;29;20555;-84
2023/06/18 03:00:24;;;;;;;14.20;13.40;;;18.10;71.90;;;;;;4935825;29;20464;-84
2023/06/18 03:02:52;;;;;;;14.57;13.40;;;18.10;72.40;;;;;;4937285;28;20503;-83
2023/06/18 03:05:20;;;;;;;14.93;13.63;;;18.00;71.70;;;;;;4939221;29;20815;-82
2023/06/18 03:07:49;;;;;;;15.27;14.07;;;17.90;72.90;;;;;;4935978;29;20965;-83
2023/06/18 03:10:17;;;;;;;14.67;13.60;;;17.90;73.60;;;;;;4935493;28;20965;-83
2023/06/18 03:12:45;;;;;;;14.53;13.53;;;17.90;73.80;;;;;;4938183;29;20495;-83
2023/06/18 03:15:13;;;;;;;14.47;13.47;;;17.90;74.00;;;;;;4936415;29;20467;-83
2023/06/18 03:17:44;;;;;;;14.33;13.43;;;17.90;73.70;;;;;;4936268;29;20476;-79
2023/06/18 03:20:13;;;;;;;14.20;13.23;;;17.80;74.00;;;;;;4937483;28;20484;-84
2023/06/18 03:22:41;;;;;;;14.27;13.37;;;17.80;73.40;;;;;;4939292;28;20489;-84
2023/06/18 03:25:09;;;;;;;14.83;13.83;;;17.90;77.30;;;;;;4939674;29;20464;-83
2023/06/18 03:27:37;;;;;;;15.20;14.10;;;18.00;78.50;;;;;;4940994;29;20564;-84
2023/06/18 03:30:07;;;;;;;14.60;13.70;;;17.90;77.70;;;;;;4939251;29;20464;-80
2023/06/18 03:32:35;;;;;;;15.20;14.10;;;17.90;78.40;;;;;;4941466;28;20502;-82
2023/06/18 03:35:06;;;;;;;15.77;14.67;;;17.90;77.40;;;;;;4938495;29;20530;-81
2023/06/18 03:37:34;;;;;;;15.43;14.33;;;17.80;77.90;;;;;;4942616;29;20505;-82
2023/06/18 03:40:04;;;;;;;14.93;13.73;;;17.80;79.20;;;;;;4943628;29;20484;-82
2023/06/18 03:42:32;;;;;;;15.10;14.20;;;17.80;79.00;;;;;;4942431;29;20539;-82
2023/06/18 03:45:00;;;;;;;14.87;13.70;;;17.80;80.70;;;;;;4943493;29;20468;-82
2023/06/18 03:47:28;;;;;;;15.87;14.77;;;17.70;83.60;;;;;;4939816;28;20502;-82
2023/06/18 03:49:56;;;;;;;16.00;14.90;;;17.80;85.10;;;;;;4941068;29;20463;-82
2023/06/18 03:52:26;;;;;;;15.77;14.67;;;17.80;86.00;;;;;;4942904;29;20484;-82
2023/06/18 03:54:54;;;;;;;15.73;14.73;;;17.80;84.70;;;;;;4941251;28;21017;-83
2023/06/18 03:57:22;;;;;;;15.90;14.40;;;17.70;85.10;;;;;;4944449;28;20456;-82
2023/06/18 03:59:51;;;;;;;15.27;14.33;;;17.80;86.00;;;;;;4942368;29;20453;-81
2023/06/18 04:02:20;;;;;;;14.60;13.70;;;17.90;88.60;;;;;;4937713;29;20618;-82
2023/06/18 04:04:48;;;;;;;15.37;14.47;;;18.00;90.00;;;;;;4939272;29;21130;-83
2023/06/18 04:07:16;;;;;;;15.37;14.07;;;18.00;90.40;;;;;;4942562;29;20452;-79
2023/06/18 04:09:46;;;;;;;15.57;14.53;;;18.00;91.00;;;;;;4937993;29;20464;-82
2023/06/18 04:12:14;;;;;;;15.97;14.77;;;18.00;90.80;;;;;;4941176;29;20495;-82
2023/06/18 04:14:42;;;;;;;16.23;15.03;;;18.10;91.90;;;;;;4945595;29;21069;-83
2023/06/18 04:17:10;;;;;;;14.40;13.60;;;18.20;91.70;;;;;;4943131;29;20464;-83
2023/06/18 04:19:38;;;;;;;15.60;14.57;;;18.20;91.50;;;;;;4937571;29;20464;-85
2023/06/18 04:22:07;;;;;;;14.90;13.90;;;18.30;90.80;;;;;;4938412;28;20483;-82
2023/06/18 04:24:35;;;;;;;14.97;13.87;;;18.30;92.10;;;;;;4938659;29;20464;-80
2023/06/18 04:27:05;;;;;;;15.53;14.43;;;18.20;94.60;;;;;;4939275;29;20958;-83
2023/06/18 04:29:33;;;;;;;16.03;15.00;;;18.20;94.90;;;;;;4934767;28;20992;-82
2023/06/18 04:32:01;;;;;;;16.63;15.43;;;18.10;96.40;;;;;;4939045;28;20484;-84
2023/06/18 04:34:29;;;;;;;15.10;14.00;;;18.10;96.00;;;;;;4938022;29;20456;-83
2023/06/18 04:36:57;;;;;;;15.70;14.60;;;18.00;97.10;;;;;;4939846;29;20575;-83
2023/06/18 04:39:26;;;;;;;16.13;14.93;;;18.10;96.50;;;;;;4938079;29;20555;-84
2023/06/18 04:41:54;;;;;;;16.07;15.00;;;18.20;96.50;;;;;;4940836;28;21231;-82
2023/06/18 04:44:23;;;;;;;15.63;14.63;;;18.20;94.00;;;;;;4938939;29;21020;-82
2023/06/18 04:46:51;;;;;;;14.63;13.63;;;18.30;95.00;;;;;;4940452;28;20962;-82
2023/06/18 04:49:20;;;;;;;16.47;15.13;;;18.30;93.80;;;;;;4940043;29;20550;-80
2023/06/18 04:51:48;;;;;;;16.47;15.37;;;18.30;93.50;;;;;;4939990;28;20497;-80
2023/06/18 04:54:16;;;;;;;15.80;14.80;;;18.40;94.00;;;;;;4939804;29;21283;-82
2023/06/18 04:56:44;;;;;;;15.60;14.50;;;18.40;93.60;;;;;;4941043;29;20822;-82
2023/06/18 04:59:12;;;;;;;16.77;15.57;;;18.50;93.60;;;;;;4940044;29;20977;-82
2023/06/18 05:01:42;;;;;;;16.37;15.17;;;18.50;94.70;;;;;;4903092;28;1105043;-80
2023/06/18 05:04:11;;;;;;;15.70;14.50;;;18.50;94.70;;;;;;4942826;29;20209;-82
2023/06/18 05:06:40;;;;;;;15.83;14.83;;;18.50;96.80;;;;;;4939039;28;20463;-81
2023/06/18 05:09:08;;;;;;;16.53;15.33;;;18.60;97.00;;;;;;4938171;29;20508;-80
2023/06/18 05:11:36;;;;;;;15.90;14.90;;;18.60;97.40;;;;;;4940494;29;20484;-82
2023/06/18 05:14:05;;;;;;;16.63;15.47;;;18.60;99.30;;;;;;4937009;29;20460;-82
2023/06/18 05:16:34;;;;;;;15.53;14.63;;;18.60;97.50;;;;;;4941628;29;20444;-79
2023/06/18 05:19:04;;;;;;;15.20;14.30;;;18.60;97.90;;;;;;4940292;29;20563;-82
2023/06/18 05:21:32;;;;;;;16.53;15.53;;;18.70;98.10;;;;;;4940058;29;20532;-83
2023/06/18 05:24:00;;;;;;;17.57;16.37;;;18.70;99.30;;;;;;4935628;29;20449;-79
2023/06/18 05:26:30;;;;;;;17.07;15.97;;;18.80;99.90;;;;;;4940506;28;20652;-82
2023/06/18 05:28:59;;;;;;;16.50;15.40;;;18.80;99.90;;;;;;4935301;29;20461;-82
2023/06/18 05:31:28;;;;;;;16.37;15.40;;;18.90;99.90;;;;;;4937591;28;21080;-81
2023/06/18 05:33:56;;;;;;;17.00;15.80;;;18.90;99.90;;;;;;4938568;29;20484;-83
2023/06/18 05:36:25;;;;;;;17.50;16.20;;;19.00;99.20;;;;;;4939286;29;20463;-81
2023/06/18 05:38:58;;;;;;;16.50;15.50;;;19.00;99.30;;;;;;4938328;29;20464;-83
2023/06/18 05:41:27;;;;;;;17.20;16.07;;;19.00;98.80;;;;;;4937657;28;20496;-82
2023/06/18 05:43:55;;;;;;;16.80;15.50;;;19.10;99.90;;;;;;4934388;28;20452;-82
2023/06/18 05:46:23;;;;;;;16.50;15.40;;;19.20;99.90;;;;;;4935682;29;20452;-82
2023/06/18 05:48:52;;;;;;;16.73;15.63;;;19.30;99.90;;;;;;4938124;29;20453;-83
2023/06/18 05:51:20;;;;;;;17.20;16.20;;;19.30;99.70;;;;;;4938780;28;20488;-83
2023/06/18 05:53:50;;;;;;;17.30;16.10;;;19.30;99.90;;;;;;4938481;28;20480;-84
2023/06/18 05:56:18;;;;;;;16.70;15.60;;;19.40;99.90;;;;;;4933037;29;20452;-82
2023/06/18 05:58:46;;;;;;;17.50;16.30;;;19.50;99.90;;;;;;4937055;29;20460;-83
2023/06/18 06:01:14;;;;;;;16.13;15.13;;;19.60;99.90;;;;;;4933457;29;20472;-83
2023/06/18 06:03:42;;;;;;;16.20;15.20;;;19.60;99.90;;;;;;4935634;28;20494;-81
2023/06/18 06:06:11;;;;;;;16.60;15.60;;;19.70;99.90;;;;;;4941890;29;20534;-83
2023/06/18 06:08:39;;;;;;;17.07;15.97;;;19.80;99.90;;;;;;4945109;29;20463;-80
2023/06/18 06:11:08;;;;;;;16.90;15.87;;;19.80;99.90;;;;;;4941203;29;20488;-83
2023/06/18 06:13:38;;;;;;;16.23;15.23;;;19.90;99.90;;;;;;4940167;29;20930;-80
2023/06/18 06:16:06;;;;;;;15.93;14.93;;;19.90;99.90;;;;;;4938095;29;20492;-80
2023/06/18 06:18:34;;;;;;;15.77;14.80;;;20.00;99.90;;;;;;4929925;28;20453;-82
2023/06/18 06:21:03;;;;;;;14.97;14.07;;;19.90;99.60;;;;;;4931825;28;20488;-83
2023/06/18 06:28:17;;;;;;;14.83;13.80;;;20.00;99.90;;;;;;4860562;29;20472;-81
2023/06/18 06:34:02;;;;;;;14.90;14.00;;;20.10;94.10;;;;;;4940568;29;20968;-83
2023/06/18 06:36:35;;;;;;;13.80;12.90;;;20.10;95.20;;;;;;4936100;28;20227;-83
2023/06/18 06:39:11;;;;;;;13.60;12.80;;;20.10;92.40;;;;;;4940102;29;20465;-82
2023/06/18 06:41:39;;;;;;;14.43;13.53;;;20.20;90.50;;;;;;4942725;28;20464;-83
2023/06/18 06:47:25;;;;;;;13.73;12.83;;;20.30;90.10;;;;;;4941841;28;20467;-82
2023/06/18 06:49:53;;;;;;;14.10;13.20;;;20.40;87.00;;;;;;4955938;28;20826;-84
2023/06/18 06:52:21;;;;;;;13.40;12.37;;;20.50;88.10;;;;;;4934105;28;20491;-81
2023/06/18 06:54:51;;;;;;;11.97;11.27;;;20.60;85.70;;;;;;4936165;28;20499;-83
2023/06/18 06:57:19;;;;;;;12.83;12.13;;;20.60;84.40;;;;;;4940329;29;20456;-82
2023/06/18 06:59:49;;;;;;;13.17;12.33;;;20.60;84.00;;;;;;4937878;29;21125;-82
2023/06/18 07:02:17;;;;;;;13.10;12.30;;;20.70;83.70;;;;;;4936044;28;20492;-82
2023/06/18 07:04:47;;;;;;;12.47;11.60;;;20.80;80.90;;;;;;4938736;28;20474;-82
2023/06/18 07:07:16;;;;;;;12.80;11.80;;;20.80;79.10;;;;;;4935991;29;20457;-82
2023/06/18 07:09:44;;;;;;;13.47;12.60;;;20.90;79.80;;;;;;4937396;29;20218;-82
2023/06/18 07:12:12;;;;;;;11.10;10.50;;;21.00;83.20;;;;;;4939590;28;20478;-80
2023/06/18 07:14:40;;;;;;;11.17;10.50;;;21.10;80.00;;;;;;4939225;28;20504;-82
2023/06/18 07:17:10;;;;;;;12.27;11.57;;;21.20;85.00;;;;;;4939077;28;20471;-81
2023/06/18 07:19:38;;;;;;;11.93;11.13;;;21.10;85.00;;;;;;4936963;29;20565;-82
2023/06/18 07:22:06;;;;;;;11.60;11.00;;;21.20;86.30;;;;;;4937739;28;20527;-82
2023/06/18 07:24:35;;;;;;;11.87;11.07;;;21.30;83.50;;;;;;4940359;28;20456;-80
2023/06/18 07:27:03;;;;;;;11.87;11.17;;;21.40;80.20;;;;;;4933237;28;20464;-78
2023/06/18 07:29:32;;;;;;;11.80;11.03;;;21.50;78.40;;;;;;4936374;28;20469;-82
2023/06/18 07:32:00;;;;;;;11.90;11.27;;;21.50;80.10;;;;;;4935695;28;20487;-81
2023/06/18 07:34:30;;;;;;;12.60;11.70;;;21.50;83.50;;;;;;4938135;29;20542;-82
2023/06/18 07:36:58;;;;;;;11.57;11.07;;;21.60;82.80;;;;;;4938573;29;20510;-80
2023/06/18 07:39:27;;;;;;;12.33;11.63;;;21.70;87.60;;;;;;4939617;29;20476;-81
2023/06/18 07:41:55;;;;;;;11.97;11.37;;;21.70;86.10;;;;;;4940745;29;20508;-81
2023/06/18 07:44:23;;;;;;;12.30;11.50;;;21.80;87.80;;;;;;4938447;29;21028;-80
2023/06/18 07:46:51;;;;;;;12.47;11.50;;;21.90;91.40;;;;;;4936068;29;20448;-79
2023/06/18 07:49:21;;;;;;;12.10;11.50;;;22.00;90.90;;;;;;4932517;29;20621;-79
2023/06/18 07:58:41;;;;;;;12.10;11.40;;;22.20;84.60;;;;;;4878079;29;20467;-82
2023/06/18 08:01:09;;;;;;;10.90;10.30;;;22.20;80.70;;;;;;4878697;29;20493;-82
2023/06/18 08:03:37;;;;;;;10.90;10.27;;;22.20;79.60;;;;;;4937068;29;20838;-80
2023/06/18 08:06:24;;;;;;;11.50;10.70;;;22.30;78.30;;;;;;4936680;29;20457;-80
2023/06/18 08:09:06;;;;;;;11.00;10.40;;;22.50;90.20;;;;;;4937361;29;20530;-81
2023/06/18 08:11:35;;;;;;;11.60;10.90;;;22.60;81.50;;;;;;4937929;28;20490;-81
2023/06/18 08:14:04;;;;;;;11.40;10.70;;;22.60;82.10;;;;;;4956579;28;20483;-83
2023/06/18 08:16:32;;;;;;;10.30;9.70;;;22.70;79.20;;;;;;4938726;29;20460;-80
2023/06/18 08:19:06;;;;;;;11.10;10.47;;;22.70;79.60;;;;;;4937436;28;20463;-81
2023/06/18 08:22:03;;;;;;;11.17;10.50;;;22.80;81.10;;;;;;4931736;29;20564;-80
2023/06/18 08:24:33;;;;;;;11.47;10.67;;;22.80;83.20;;;;;;4940093;29;20460;-78
2023/06/18 08:27:18;;;;;;;11.40;10.70;;;22.80;84.90;;;;;;4941755;29;21057;-81
2023/06/18 08:29:46;;;;;;;11.77;11.00;;;22.80;83.90;;;;;;4939211;28;20549;-79
2023/06/18 08:33:09;;;;;;;11.27;10.67;;;22.80;83.40;;;;;;4941047;28;20498;-83
2023/06/18 08:35:40;;;;;;;11.23;10.63;;;22.90;85.30;;;;;;4938086;29;20491;-82
2023/06/18 08:38:31;;;;;;;12.37;11.67;;;22.90;85.40;;;;;;4937719;29;20950;-80
2023/06/18 08:41:02;;;;;;;11.97;11.27;;;22.90;83.60;;;;;;4939834;29;20461;-81
2023/06/18 08:43:36;;;;;;;11.70;11.03;;;23.00;84.80;;;;;;4943229;28;20504;-83
2023/06/18 08:46:10;;;;;;;12.07;11.33;;;23.00;84.50;;;;;;4948772;29;21115;-84
2023/06/18 08:51:41;;;;;;;11.68;10.88;;;23.00;83.30;;;;;;4941103;28;20989;-85
2023/06/18 08:55:13;;;;;;;11.70;11.00;;;23.00;89.00;;;;;;4942103;28;20229;-85
2023/06/18 08:57:51;;;;;;;10.20;9.70;;;23.10;87.60;;;;;;4944326;29;20523;-83
2023/06/18 09:07:07;;;;;;;11.87;10.80;;;23.30;85.10;;;;;;4957825;28;20479;-84
2023/06/18 09:09:36;;;;;;;10.20;9.50;;;23.40;82.40;;;;;;4974795;28;20542;-85
2023/06/18 09:12:25;;;;;;;11.50;10.70;;;23.50;86.00;;;;;;4959683;28;20502;-84
2023/06/18 09:15:36;;;;;;;10.63;10.03;;;23.60;82.60;;;;;;4900280;28;20512;-85
2023/06/18 09:18:05;;;;;;;10.97;10.20;;;23.60;85.50;;;;;;4956183;28;20972;-83
2023/06/18 09:21:05;;;;;;;9.53;8.80;;;23.70;80.20;;;;;;4955956;28;20985;-81
2023/06/18 09:23:36;;;;;;;9.77;9.20;;;23.70;78.30;;;;;;4957010;28;20444;-83
2023/06/18 09:27:07;;;;;;;9.77;9.20;;;23.70;94.80;;;;;;4960556;28;20459;-84
2023/06/18 09:29:37;;;;;;;10.57;10.00;;;23.70;81.00;;;;;;4955355;28;20463;-84
2023/06/18 09:32:18;;;;;;;10.00;9.40;;;23.70;82.20;;;;;;4959350;28;20476;-84
2023/06/18 09:34:47;;;;;;;9.57;8.80;;;23.90;81.00;;;;;;4956103;28;20494;-84
2023/06/18 09:37:16;;;;;;;9.10;8.60;;;24.00;81.70;;;;;;4955298;28;21008;-84
2023/06/18 09:39:44;;;;;;;10.20;9.60;;;24.00;84.70;;;;;;4955308;28;20460;-85
2023/06/18 09:42:13;;;;;;;11.20;10.47;;;24.00;86.10;;;;;;4960138;28;20503;-85
2023/06/18 09:44:45;;;;;;;10.33;9.70;;;23.90;84.80;;;;;;4958086;28;20891;-84
2023/06/18 09:47:15;;;;;;;9.57;9.03;;;23.80;85.60;;;;;;4957806;28;20550;-85
2023/06/18 09:49:45;;;;;;;10.23;9.57;;;23.80;81.00;;;;;;4958158;28;20539;-85
2023/06/18 09:52:14;;;;;;;8.93;8.43;;;23.80;79.70;;;;;;4961549;28;20485;-86
2023/06/18 09:57:52;;;;;;;9.43;8.93;;;24.00;77.60;;;;;;4947798;28;20472;-84
2023/06/18 10:06:41;;;;;;;9.60;9.10;;;24.00;77.60;;;;;;4934953;29;20615;-84
2023/06/18 10:09:42;;;;;;;11.20;10.40;;;24.00;80.40;;;;;;4926076;29;20585;-82
2023/06/18 10:13:11;;;;;;;10.90;10.10;;;24.00;81.60;;;;;;4926233;29;20488;-84
2023/06/18 10:16:16;;;;;;;9.77;9.27;;;24.00;80.20;;;;;;4928893;29;20476;-84
2023/06/18 10:19:04;;;;;;;9.17;8.67;;;24.00;79.60;;;;;;4931314;29;20461;-83
2023/06/18 10:21:46;;;;;;;10.30;9.70;;;24.20;78.60;;;;;;4926035;29;20887;-84
2023/06/18 10:24:18;;;;;;;9.43;8.93;;;24.20;95.00;;;;;;4929339;29;20954;-84
2023/06/18 10:27:17;;;;;;;9.73;9.17;;;24.30;81.40;;;;;;4930686;29;20510;-84
2023/06/18 10:29:47;;;;;;;10.10;9.40;;;24.40;84.00;;;;;;4924202;29;20548;-87
2023/06/18 10:32:16;;;;;;;9.90;9.30;;;24.40;96.70;;;;;;4920680;29;20512;-85
2023/06/18 10:34:47;;;;;;;9.90;9.30;;;24.40;85.90;;;;;;4932736;29;20481;-84
2023/06/18 10:37:18;;;;;;;10.17;9.27;;;24.50;95.10;;;;;;4922812;29;20441;-85
2023/06/18 10:39:50;;;;;;;8.80;8.30;;;24.70;84.10;;;;;;4929199;29;20894;-84
2023/06/18 10:47:00;;;;;;;9.80;8.90;;;24.70;84.00;;;;;;4925952;29;20504;-84
2023/06/18 10:49:29;;;;;;;10.43;9.83;;;25.00;87.40;;;;;;4863015;29;21208;-85
2023/06/18 10:52:30;;;;;;;9.63;9.03;;;24.80;86.20;;;;;;4862816;29;20511;-85
2023/06/18 10:58:32;;;;;;;8.80;8.30;;;24.70;83.10;;;;;;4930479;29;20612;-83
2023/06/18 11:05:02;;;;;;;9.90;9.23;;;24.90;82.00;;;;;;4927533;29;20448;-84
2023/06/18 11:07:34;;;;;;;9.57;9.07;;;24.70;83.80;;;;;;4872267;29;20471;-85
2023/06/18 11:10:06;;;;;;;10.47;9.83;;;24.80;86.50;;;;;;4870268;29;20458;-85
2023/06/18 11:12:38;;;;;;;9.90;9.40;;;24.80;84.10;;;;;;4872704;29;20487;-84
2023/06/18 11:15:15;;;;;;;8.60;8.20;;;24.80;86.60;;;;;;4865385;29;20510;-84
2023/06/18 11:17:46;;;;;;;10.20;9.70;;;24.70;85.20;;;;;;4884877;29;20528;-82
2023/06/18 11:20:15;;;;;;;8.50;8.10;;;24.70;85.40;;;;;;4923164;29;20483;-84
2023/06/18 11:22:45;;;;;;;10.40;9.80;;;24.70;85.00;;;;;;4922507;29;20498;-84
2023/06/18 11:25:15;;;;;;;10.03;9.43;;;24.70;84.80;;;;;;4923354;29;20461;-85
2023/06/18 11:31:31;;;;;;;9.07;8.57;;;24.90;86.20;;;;;;4919955;29;20486;-84
2023/06/18 11:34:06;;;;;;;9.73;9.23;;;25.00;85.70;;;;;;4919496;29;20971;-83
2023/06/18 11:37:07;;;;;;;10.53;9.77;;;25.00;86.90;;;;;;4924995;29;20620;-85
2023/06/18 11:40:00;;;;;;;9.23;8.60;;;25.20;84.20;;;;;;4928055;29;20463;-86
2023/06/18 11:43:46;;;;;;;9.47;8.97;;;25.20;87.40;;;;;;4923148;29;20868;-83
2023/06/18 11:50:36;;;;;;;9.40;8.83;;;25.20;88.70;;;;;;4916423;29;20464;-84
2023/06/18 11:53:26;;;;;;;10.10;9.40;;;25.20;89.50;;;;;;4927452;29;20506;-85
2023/06/18 12:00:25;;;;;;;9.30;8.80;;;25.60;87.40;;;;;;4901869;29;20961;-84
2023/06/18 12:06:39;;;;;;;9.07;8.37;;;25.40;88.80;;;;;;4922636;29;21046;-85
2023/06/18 12:09:17;;;;;;;9.73;9.23;;;25.30;90.10;;;;;;4931727;29;20460;-84
2023/06/18 12:12:14;;;;;;;9.53;9.03;;;25.30;87.20;;;;;;4931456;29;20464;-85
2023/06/18 12:21:58;;;;;;;8.87;8.23;;;25.50;88.10;;;;;;4925688;29;20470;-87
2023/06/18 12:24:28;;;;;;;9.13;8.60;;;25.50;86.10;;;;;;4928770;29;20453;-86
2023/06/18 12:26:57;;;;;;;8.93;8.27;;;25.50;89.20;;;;;;4928526;29;20467;-85
2023/06/18 12:29:27;;;;;;;8.90;8.30;;;25.50;87.70;;;;;;4928159;29;20991;-86
2023/06/18 12:32:03;;;;;;;8.60;8.10;;;25.70;85.90;;;;;;4932537;29;20552;-84
2023/06/18 12:34:35;;;;;;;9.10;8.60;;;25.70;89.20;;;;;;4926316;29;20476;-87
2023/06/18 12:37:05;;;;;;;9.77;9.17;;;25.60;90.10;;;;;;4926892;29;20485;-87
2023/06/18 12:39:34;;;;;;;9.67;8.97;;;25.60;91.20;;;;;;4926553;29;20942;-86
2023/06/18 12:42:09;;;;;;;8.37;7.77;;;25.70;91.30;;;;;;4922145;29;20918;-85
2023/06/18 12:45:03;;;;;;;8.90;8.27;;;25.80;89.30;;;;;;4924829;29;20493;-88
2023/06/18 12:47:32;;;;;;;11.57;10.77;;;25.70;88.30;;;;;;4926742;29;21001;-88
2023/06/18 12:50:00;;;;;;;9.80;9.20;;;25.80;89.50;;;;;;4922294;29;20465;-85
2023/06/18 12:57:15;;;;;;;;;;;;;;;;;;;;;
2023/06/18 13:00:26;;;;;;;8.83;8.33;;;26.00;86.70;;;;;;4884939;29;20291;-87
2023/06/18 13:05:53;;;;;;;8.60;8.10;;;26.00;86.80;;;;;;5443740;23;20542;-88
2023/06/18 13:19:56;;;;;;;7.50;7.00;;;26.10;85.10;;;;;;4945532;28;20557;-85
2023/06/18 13:22:36;;;;;;;7.03;6.63;;;26.20;85.60;;;;;;4970043;28;20862;-86
2023/06/18 13:25:05;;;;;;;7.23;6.83;;;26.10;86.60;;;;;;4977239;28;21092;-85
2023/06/18 13:27:34;;;;;;;7.33;6.93;;;26.10;87.60;;;;;;4976439;28;20462;-86
2023/06/18 13:30:02;;;;;;;6.40;6.10;;;26.10;90.20;;;;;;4978884;28;20498;-86
2023/06/18 13:32:31;;;;;;;7.50;6.90;;;26.10;85.20;;;;;;4975251;28;21029;-87
2023/06/18 13:35:12;;;;;;;7.87;7.43;;;26.10;88.70;;;;;;4975417;28;20542;-86
2023/06/18 13:37:44;;;;;;;8.70;8.20;;;26.20;87.00;;;;;;4975098;28;20522;-85
2023/06/18 13:40:19;;;;;;;7.93;7.43;;;26.00;89.80;;;;;;4979700;28;20446;-86
2023/06/18 13:42:52;;;;;;;7.20;6.70;;;26.00;88.30;;;;;;4974501;28;20558;-85
2023/06/18 13:45:29;;;;;;;8.40;8.00;;;26.00;90.00;;;;;;4976048;28;20447;-86
2023/06/18 13:47:57;;;;;;;8.80;8.20;;;26.00;89.00;;;;;;4976327;28;20533;-87
2023/06/18 13:50:34;;;;;;;7.80;7.27;;;26.00;86.10;;;;;;4972992;28;20453;-85
2023/06/18 13:53:11;;;;;;;7.20;6.90;;;26.00;86.90;;;;;;4975227;28;20571;-86
2023/06/18 13:55:48;;;;;;;7.77;7.37;;;26.10;86.90;;;;;;4975486;28;21239;-87
2023/06/18 13:58:16;;;;;;;7.33;7.03;;;26.30;85.60;;;;;;4976960;28;20545;-87
2023/06/18 14:00:45;;;;;;;7.83;7.43;;;26.30;90.20;;;;;;4961063;28;20455;-86
2023/06/18 14:03:14;;;;;;;7.27;6.97;;;26.20;90.10;;;;;;4976955;28;20570;-86
2023/06/18 14:05:53;;;;;;;7.73;7.43;;;26.20;88.70;;;;;;4974657;28;21008;-85
2023/06/18 14:08:25;;;;;;;8.00;7.70;;;26.20;89.70;;;;;;4974076;28;20474;-86
2023/06/18 14:10:54;;;;;;;8.33;7.73;;;26.10;90.90;;;;;;4980385;28;20442;-85
2023/06/18 14:13:25;;;;;;;8.10;7.70;;;26.10;89.60;;;;;;4974839;28;20557;-85
2023/06/18 14:16:34;;;;;;;8.70;8.10;;;26.00;89.10;;;;;;4978856;28;20473;-86
2023/06/18 14:19:31;;;;;;;8.00;7.50;;;26.10;87.50;;;;;;4975842;28;20447;-87
2023/06/18 14:22:12;;;;;;;8.30;7.80;;;26.20;89.40;;;;;;5009531;23;20526;-86
2023/06/18 14:24:58;;;;;;;9.50;9.00;;;26.20;90.50;;;;;;4986307;28;20458;-85
2023/06/18 14:27:42;;;;;;;8.70;8.20;;;26.20;90.10;;;;;;4975665;28;20538;-85
2023/06/18 14:30:12;;;;;;;7.63;7.23;;;26.30;89.30;;;;;;4979419;28;20562;-86
2023/06/18 14:32:57;;;;;;;8.00;7.70;;;26.30;90.00;;;;;;4965579;28;20593;-87